createdAt,value
2023-05-15T00:00:56.542Z,5.80
2023-05-15T00:01:56.519Z,6.30
2023-05-15T00:02:56.606Z,6.10
2023-05-15T00:03:56.517Z,6.40
2023-05-15T00:04:56.565Z,6.00
2023-05-15T00:05:56.483Z,6.10
2023-05-15T00:06:56.465Z,6.50
2023-05-15T00:07:56.476Z,6.30
2023-05-15T00:08:56.501Z,6.30
2023-05-15T00:09:56.425Z,6.40
2023-05-15T00:11:56.402Z,7.10
2023-05-15T00:12:56.404Z,6.60
2023-05-15T00:13:56.391Z,6.30
2023-05-15T00:14:56.372Z,6.50
2023-05-15T00:15:56.436Z,6.20
2023-05-15T00:16:56.404Z,6.70
2023-05-15T00:17:56.417Z,6.30
2023-05-15T00:18:56.445Z,6.10
2023-05-15T00:19:56.377Z,6.70
2023-05-15T00:20:56.307Z,6.40
2023-05-15T00:21:56.298Z,6.40
2023-05-15T00:22:56.280Z,6.70
2023-05-15T00:23:56.270Z,6.50
2023-05-15T00:24:56.275Z,6.20
2023-05-15T00:25:56.289Z,6.90
2023-05-15T00:26:56.242Z,7.00
2023-05-15T00:27:56.262Z,7.00
2023-05-15T00:28:56.234Z,7.30
2023-05-15T00:29:56.222Z,9.30
2023-05-15T00:30:56.303Z,10.40
2023-05-15T00:31:56.243Z,12.00
2023-05-15T00:32:56.210Z,11.80
2023-05-15T00:33:56.164Z,12.90
2023-05-15T00:34:56.176Z,13.50
2023-05-15T00:35:56.142Z,12.80
2023-05-15T00:36:56.147Z,15.80
2023-05-15T00:37:56.164Z,16.60
2023-05-15T00:38:56.115Z,16.70
2023-05-15T00:39:56.101Z,14.80
2023-05-15T00:40:56.107Z,13.70
2023-05-15T00:41:56.074Z,13.00
2023-05-15T00:43:03.102Z,12.00
2023-05-15T00:43:56.064Z,10.70
2023-05-15T00:44:56.057Z,10.00
2023-05-15T00:45:56.036Z,9.00
2023-05-15T00:46:56.221Z,8.00
2023-05-15T00:47:56.095Z,7.80
2023-05-15T00:48:56.001Z,8.20
2023-05-15T00:49:55.988Z,8.30
2023-05-15T00:50:56.001Z,8.00
2023-05-15T00:51:55.985Z,8.10
2023-05-15T00:52:55.960Z,8.00
2023-05-15T00:53:56.016Z,7.90
2023-05-15T00:54:55.946Z,8.40
2023-05-15T00:55:55.925Z,9.20
2023-05-15T00:56:55.958Z,8.60
2023-05-15T00:57:55.903Z,8.80
2023-05-15T00:58:55.891Z,9.40
2023-05-15T00:59:55.890Z,9.80
2023-05-15T01:00:55.930Z,8.60
2023-05-15T01:01:55.901Z,8.50
2023-05-15T01:02:55.902Z,8.10
2023-05-15T01:03:55.853Z,8.30
2023-05-15T01:04:55.822Z,8.50
2023-05-15T01:05:55.814Z,7.90
2023-05-15T01:06:55.831Z,8.20
2023-05-15T01:07:55.795Z,8.60
2023-05-15T01:08:55.797Z,8.40
2023-05-15T01:09:55.766Z,7.70
2023-05-15T01:10:55.770Z,9.10
2023-05-15T01:11:55.755Z,8.60
2023-05-15T01:12:55.730Z,8.60
2023-05-15T01:13:55.726Z,8.40
2023-05-15T01:14:55.727Z,8.70
2023-05-15T01:15:55.734Z,8.90
2023-05-15T01:16:55.724Z,9.30
2023-05-15T01:17:55.858Z,8.40
2023-05-15T01:18:55.726Z,9.40
2023-05-15T01:19:55.727Z,8.60
2023-05-15T01:20:55.649Z,8.00
2023-05-15T01:21:55.637Z,8.20
2023-05-15T01:22:55.645Z,8.70
2023-05-15T01:23:55.616Z,8.50
2023-05-15T01:24:55.694Z,8.60
2023-05-15T01:25:55.588Z,8.80
2023-05-15T01:26:55.718Z,8.70
2023-05-15T01:27:55.573Z,9.00
2023-05-15T01:28:55.595Z,8.80
2023-05-15T01:29:55.563Z,7.90
2023-05-15T01:30:55.532Z,8.50
2023-05-15T01:31:55.572Z,8.00
2023-05-15T01:32:55.612Z,8.60
2023-05-15T01:33:55.504Z,8.10
2023-05-15T01:34:55.530Z,7.80
2023-05-15T01:35:55.487Z,8.30
2023-05-15T01:36:55.484Z,7.80
2023-05-15T01:37:55.460Z,7.30
2023-05-15T01:38:55.488Z,7.60
2023-05-15T01:39:55.444Z,7.60
2023-05-15T01:40:55.438Z,7.80
2023-05-15T01:41:55.429Z,7.50
2023-05-15T01:42:55.419Z,7.80
2023-05-15T01:43:55.426Z,8.00
2023-05-15T01:44:55.374Z,7.80
2023-05-15T01:45:55.404Z,7.90
2023-05-15T01:46:55.395Z,8.30
2023-05-15T01:47:55.406Z,8.40
2023-05-15T01:48:55.333Z,8.90
2023-05-15T01:49:55.363Z,8.90
2023-05-15T01:50:55.321Z,8.50
2023-05-15T01:51:55.293Z,9.30
2023-05-15T01:52:55.326Z,9.10
2023-05-15T01:53:55.277Z,9.40
2023-05-15T01:54:55.293Z,9.90
2023-05-15T01:55:55.333Z,10.00
2023-05-15T01:56:55.240Z,10.20
2023-05-15T01:57:55.240Z,9.80
2023-05-15T01:58:55.221Z,9.30
2023-05-15T01:59:55.219Z,9.00
2023-05-15T02:00:55.271Z,9.10
2023-05-15T02:01:55.216Z,9.90
2023-05-15T02:02:55.308Z,10.10
2023-05-15T02:03:55.312Z,9.30
2023-05-15T02:04:55.154Z,9.50
2023-05-15T02:05:55.141Z,10.60
2023-05-15T02:06:55.130Z,9.70
2023-05-15T02:07:55.118Z,9.30
2023-05-15T02:08:55.117Z,9.10
2023-05-15T02:09:55.107Z,9.70
2023-05-15T02:10:55.103Z,9.90
2023-05-15T02:11:55.076Z,9.70
2023-05-15T02:12:55.066Z,9.30
2023-05-15T02:13:55.105Z,9.40
2023-05-15T02:14:55.040Z,9.70
2023-05-15T02:15:55.078Z,8.70
2023-05-15T02:16:55.023Z,10.00
2023-05-15T02:17:55.041Z,9.20
2023-05-15T02:18:55.121Z,9.60
2023-05-15T02:19:54.982Z,9.50
2023-05-15T02:20:55.025Z,9.10
2023-05-15T02:21:54.962Z,10.20
2023-05-15T02:22:54.991Z,9.30
2023-05-15T02:23:54.957Z,9.90
2023-05-15T02:24:54.925Z,10.40
2023-05-15T02:25:54.924Z,10.50
2023-05-15T02:26:54.929Z,11.00
2023-05-15T02:27:54.917Z,11.10
2023-05-15T02:28:54.885Z,11.10
2023-05-15T02:29:54.880Z,10.70
2023-05-15T02:30:54.866Z,10.70
2023-05-15T02:31:54.953Z,10.80
2023-05-15T02:32:54.901Z,11.20
2023-05-15T02:33:54.851Z,12.10
2023-05-15T02:34:54.828Z,12.70
2023-05-15T02:35:54.841Z,13.30
2023-05-15T02:36:54.819Z,13.30
2023-05-15T02:37:54.800Z,13.20
2023-05-15T02:38:54.785Z,13.60
2023-05-15T02:39:54.761Z,13.20
2023-05-15T02:40:54.784Z,14.60
2023-05-15T02:41:54.756Z,13.30
2023-05-15T02:42:54.754Z,14.70
2023-05-15T02:45:36.757Z,11.60
2023-05-15T02:46:36.668Z,13.70
2023-05-15T02:47:36.738Z,13.00
2023-05-15T02:48:36.663Z,12.60
2023-05-15T02:49:36.641Z,12.50
2023-05-15T02:50:36.622Z,13.50
2023-05-15T02:51:36.608Z,12.80
2023-05-15T02:52:36.632Z,12.80
2023-05-15T02:53:36.595Z,12.70
2023-05-15T02:54:36.625Z,13.00
2023-05-15T02:55:36.566Z,13.00
2023-05-15T02:56:36.566Z,13.30
2023-05-15T02:57:36.545Z,14.00
2023-05-15T02:58:36.567Z,13.70
2023-05-15T02:59:36.529Z,13.30
2023-05-15T03:00:36.524Z,14.20
2023-05-15T03:01:36.680Z,13.90
2023-05-15T03:02:36.551Z,13.60
2023-05-15T03:03:36.507Z,13.60
2023-05-15T03:04:36.553Z,13.60
2023-05-15T03:05:36.469Z,12.40
2023-05-15T03:06:36.455Z,12.70
2023-05-15T03:07:36.431Z,13.80
2023-05-15T03:08:36.437Z,13.00
2023-05-15T03:09:36.437Z,13.40
2023-05-15T03:10:36.448Z,14.00
2023-05-15T03:11:36.452Z,13.00
2023-05-15T03:12:36.377Z,13.00
2023-05-15T03:13:36.392Z,13.30
2023-05-15T03:14:36.382Z,12.90
2023-05-15T03:15:36.357Z,12.60
2023-05-15T03:16:37.243Z,13.20
2023-05-15T03:17:36.453Z,13.60
2023-05-15T03:18:36.351Z,13.80
2023-05-15T03:19:36.306Z,13.70
2023-05-15T03:20:36.312Z,13.20
2023-05-15T03:21:36.280Z,13.30
2023-05-15T03:22:36.266Z,12.80
2023-05-15T03:23:37.876Z,13.30
2023-05-15T03:24:36.261Z,14.20
2023-05-15T03:25:36.248Z,12.80
2023-05-15T03:26:36.225Z,12.90
2023-05-15T03:27:36.213Z,12.50
2023-05-15T03:28:36.206Z,13.30
2023-05-15T03:29:36.240Z,13.60
2023-05-15T03:30:36.200Z,12.80
2023-05-15T03:31:36.299Z,12.40
2023-05-15T03:32:36.184Z,12.90
2023-05-15T03:33:36.143Z,12.80
2023-05-15T03:34:36.133Z,12.70
2023-05-15T03:35:36.137Z,12.90
2023-05-15T03:36:36.123Z,12.60
2023-05-15T03:37:36.102Z,13.20
2023-05-15T03:38:36.088Z,13.60
2023-05-15T03:39:36.139Z,13.40
2023-05-15T03:40:36.093Z,13.20
2023-05-15T03:41:36.056Z,13.40
2023-05-15T03:42:36.058Z,14.10
2023-05-15T03:43:36.033Z,14.30
2023-05-15T03:44:36.028Z,14.30
2023-05-15T03:45:36.035Z,13.90
2023-05-15T03:46:36.066Z,14.00
2023-05-15T03:47:36.069Z,14.00
2023-05-15T03:48:35.982Z,14.60
2023-05-15T03:49:36.002Z,14.30
2023-05-15T03:50:35.963Z,14.10
2023-05-15T03:51:35.955Z,14.20
2023-05-15T03:52:35.953Z,13.80
2023-05-15T03:53:36.017Z,13.30
2023-05-15T03:54:35.926Z,13.90
2023-05-15T03:55:35.942Z,14.50
2023-05-15T03:56:35.908Z,14.80
2023-05-15T03:57:35.879Z,14.00
2023-05-15T03:58:35.947Z,13.80
2023-05-15T03:59:35.875Z,14.10
2023-05-15T04:00:35.855Z,15.40
2023-05-15T04:01:46.683Z,14.50
2023-05-15T04:02:36.958Z,15.10
2023-05-15T04:03:35.921Z,16.10
2023-05-15T04:04:35.827Z,16.20
2023-05-15T04:05:35.942Z,15.00
2023-05-15T04:06:35.792Z,17.50
2023-05-15T04:07:35.864Z,16.30
2023-05-15T04:08:35.793Z,16.90
2023-05-15T04:09:35.750Z,16.40
2023-05-15T04:10:35.751Z,17.50
2023-05-15T04:11:35.749Z,17.20
2023-05-15T04:12:35.731Z,16.70
2023-05-15T04:13:35.721Z,18.20
2023-05-15T04:14:35.704Z,17.40
2023-05-15T04:15:35.719Z,17.90
2023-05-15T04:16:35.780Z,18.60
2023-05-15T04:17:35.694Z,17.30
2023-05-15T04:18:35.785Z,18.00
2023-05-15T04:19:35.642Z,17.60
2023-05-15T04:20:35.649Z,17.10
2023-05-15T04:21:35.641Z,16.50
2023-05-15T04:22:35.629Z,16.80
2023-05-15T04:23:35.613Z,16.30
2023-05-15T04:24:35.640Z,16.20
2023-05-15T04:25:35.584Z,15.80
2023-05-15T04:26:35.592Z,15.50
2023-05-15T04:27:35.617Z,16.40
2023-05-15T04:28:35.550Z,15.70
2023-05-15T04:29:35.542Z,15.90
2023-05-15T04:30:35.563Z,15.80
2023-05-15T04:31:35.579Z,16.20
2023-05-15T04:32:35.543Z,15.70
2023-05-15T04:33:35.513Z,15.30
2023-05-15T04:34:35.498Z,16.30
2023-05-15T04:35:35.478Z,15.10
2023-05-15T04:36:35.470Z,15.60
2023-05-15T04:37:35.444Z,15.40
2023-05-15T04:38:35.437Z,15.50
2023-05-15T04:39:35.424Z,15.40
2023-05-15T04:40:35.439Z,16.20
2023-05-15T04:41:35.394Z,15.70
2023-05-15T04:42:35.388Z,15.40
2023-05-15T04:43:35.369Z,15.70
2023-05-15T04:44:35.382Z,16.00
2023-05-15T04:45:42.387Z,15.60
2023-05-15T04:46:35.473Z,15.60
2023-05-15T04:47:35.361Z,15.90
2023-05-15T04:48:35.317Z,15.60
2023-05-15T04:49:35.337Z,15.30
2023-05-15T04:50:35.325Z,15.80
2023-05-15T04:51:35.313Z,15.80
2023-05-15T04:52:35.275Z,15.90
2023-05-15T04:53:35.279Z,16.70
2023-05-15T04:54:35.279Z,15.50
2023-05-15T04:55:35.243Z,16.30
2023-05-15T04:56:35.243Z,16.80
2023-05-15T04:57:35.221Z,16.00
2023-05-15T04:58:35.248Z,16.00
2023-05-15T04:59:35.194Z,16.70
2023-05-15T05:00:35.188Z,15.00
2023-05-15T05:01:35.192Z,16.10
2023-05-15T05:02:35.182Z,16.40
2023-05-15T05:03:35.214Z,16.20
2023-05-15T05:04:35.143Z,16.40
2023-05-15T05:05:35.131Z,16.10
2023-05-15T05:06:35.144Z,15.80
2023-05-15T05:07:35.121Z,16.00
2023-05-15T05:08:35.119Z,15.70
2023-05-15T05:09:35.090Z,16.30
2023-05-15T05:10:35.081Z,15.10
2023-05-15T05:11:35.111Z,15.70
2023-05-15T05:12:35.064Z,14.50
2023-05-15T05:13:35.040Z,14.90
2023-05-15T05:14:35.050Z,15.40
2023-05-15T05:15:35.030Z,14.90
2023-05-15T05:16:35.128Z,14.20
2023-05-15T05:17:35.077Z,14.60
2023-05-15T05:18:35.019Z,15.00
2023-05-15T05:19:35.002Z,15.90
2023-05-15T05:20:34.972Z,14.80
2023-05-15T05:21:35.003Z,14.70
2023-05-15T05:22:34.987Z,14.40
2023-05-15T05:23:34.945Z,14.00
2023-05-15T05:24:34.928Z,14.40
2023-05-15T05:25:34.911Z,14.10
2023-05-15T05:26:35.010Z,14.50
2023-05-15T05:27:34.887Z,14.80
2023-05-15T05:28:34.899Z,14.20
2023-05-15T05:29:34.879Z,14.30
2023-05-15T05:30:34.859Z,14.70
2023-05-15T05:31:34.952Z,14.60
2023-05-15T05:32:34.885Z,13.70
2023-05-15T05:33:34.832Z,13.80
2023-05-15T05:34:34.834Z,13.80
2023-05-15T05:35:34.799Z,13.90
2023-05-15T05:36:35.001Z,14.20
2023-05-15T05:37:34.818Z,14.20
2023-05-15T05:38:34.859Z,13.70
2023-05-15T05:39:34.778Z,14.00
2023-05-15T05:40:34.753Z,13.40
2023-05-15T05:41:35.867Z,14.40
2023-05-15T05:42:34.778Z,13.60
2023-05-15T05:43:35.310Z,13.00
2023-05-15T05:44:34.698Z,14.00
2023-05-15T05:45:34.687Z,13.70
2023-05-15T05:46:34.718Z,14.00
2023-05-15T05:47:34.730Z,13.70
2023-05-15T05:48:38.698Z,14.40
2023-05-15T05:49:34.651Z,14.10
2023-05-15T05:50:34.640Z,13.90
2023-05-15T05:51:34.642Z,14.50
2023-05-15T05:52:34.629Z,15.10
2023-05-15T05:53:34.617Z,18.80
2023-05-15T05:54:34.669Z,14.50
2023-05-15T05:55:34.580Z,14.80
2023-05-15T05:56:34.592Z,13.40
2023-05-15T05:57:34.566Z,14.30
2023-05-15T05:58:34.635Z,14.00
2023-05-15T05:59:35.009Z,12.60
2023-05-15T06:00:34.517Z,12.70
2023-05-15T06:01:34.510Z,13.00
2023-05-15T06:02:35.463Z,12.90
2023-05-15T06:03:35.394Z,13.00
2023-05-15T06:04:34.632Z,12.80
2023-05-15T06:05:35.388Z,12.80
2023-05-15T06:06:34.654Z,12.60
2023-05-15T06:07:40.849Z,12.30
2023-05-15T06:08:35.240Z,12.70
2023-05-15T06:09:34.496Z,12.00
2023-05-15T06:10:34.657Z,12.50
2023-05-15T06:11:34.573Z,12.80
2023-05-15T06:12:35.091Z,12.90
2023-05-15T06:13:34.380Z,12.20
2023-05-15T06:14:34.496Z,12.60
2023-05-15T06:15:34.379Z,12.50
2023-05-15T06:16:34.361Z,12.80
2023-05-15T06:17:34.362Z,12.00
2023-05-15T06:18:34.499Z,12.20
2023-05-15T06:19:34.307Z,12.40
2023-05-15T06:20:34.329Z,12.30
2023-05-15T06:21:34.305Z,11.70
2023-05-15T06:22:34.300Z,12.40
2023-05-15T06:23:34.268Z,12.00
2023-05-15T06:24:34.246Z,11.70
2023-05-15T06:25:34.244Z,12.20
2023-05-15T06:26:34.274Z,11.50
2023-05-15T06:27:34.294Z,12.00
2023-05-15T06:28:34.236Z,11.80
2023-05-15T06:29:34.261Z,12.20
2023-05-15T06:30:34.250Z,12.00
2023-05-15T06:31:34.217Z,12.20
2023-05-15T06:32:34.587Z,12.10
2023-05-15T06:33:34.162Z,12.10
2023-05-15T06:34:34.176Z,12.30
2023-05-15T06:35:34.165Z,12.80
2023-05-15T06:36:34.120Z,12.10
2023-05-15T06:37:34.119Z,12.40
2023-05-15T06:38:34.099Z,12.30
2023-05-15T06:39:36.080Z,12.60
2023-05-15T06:49:26.357Z,10.00
2023-05-15T06:50:26.198Z,12.70
2023-05-15T06:51:26.175Z,12.30
2023-05-15T06:52:26.187Z,12.50
2023-05-15T06:53:26.187Z,12.80
2023-05-15T06:54:27.549Z,12.10
2023-05-15T06:55:26.558Z,12.60
2023-05-15T06:56:26.100Z,12.30
2023-05-15T06:57:26.123Z,12.30
2023-05-15T06:58:28.090Z,11.10
2023-05-15T06:59:26.820Z,11.50
2023-05-15T07:00:26.081Z,12.80
2023-05-15T07:01:26.191Z,11.20
2023-05-15T07:02:26.220Z,11.30
2023-05-15T07:03:26.026Z,11.30
2023-05-15T07:04:26.101Z,11.10
2023-05-15T07:10:23.789Z,10.90
2023-05-15T07:11:23.002Z,10.00
2023-05-15T07:12:26.401Z,10.50
2023-05-15T07:13:23.035Z,9.80
2023-05-15T07:14:22.935Z,10.50
2023-05-15T07:15:22.919Z,10.60
2023-05-15T07:16:22.867Z,10.80
2023-05-15T07:17:22.894Z,11.10
2023-05-15T07:18:25.438Z,10.40
2023-05-15T07:19:22.906Z,10.50
2023-05-15T07:20:23.116Z,11.20
2023-05-15T07:30:50.851Z,8.50
2023-05-15T07:31:50.995Z,10.80
2023-05-15T07:32:50.790Z,10.70
2023-05-15T07:33:50.744Z,10.60
2023-05-15T07:34:50.747Z,10.70
2023-05-15T07:35:50.705Z,9.90
2023-05-15T07:36:50.851Z,11.10
2023-05-15T07:37:50.743Z,11.50
2023-05-15T07:38:51.302Z,10.50
2023-05-15T07:39:50.668Z,10.50
2023-05-15T07:40:50.644Z,9.80
2023-05-15T07:41:50.655Z,9.80
2023-05-15T07:42:50.604Z,10.30
2023-05-15T07:43:50.652Z,9.90
2023-05-15T07:44:50.582Z,10.40
2023-05-15T07:45:50.968Z,11.10
2023-05-15T07:46:50.599Z,11.10
2023-05-15T07:47:50.651Z,10.90
2023-05-15T07:48:50.542Z,14.20
2023-05-15T07:49:50.527Z,11.00
2023-05-15T07:50:50.554Z,11.90
2023-05-15T07:51:50.537Z,12.30
2023-05-15T07:52:50.508Z,11.50
2023-05-15T07:53:50.497Z,12.40
2023-05-15T07:54:50.492Z,12.50
2023-05-15T07:55:50.467Z,12.40
2023-05-15T07:56:50.466Z,12.20
2023-05-15T07:58:51.581Z,12.60
2023-05-15T07:59:50.436Z,12.10
2023-05-15T08:00:50.472Z,12.10
2023-05-15T08:33:21.234Z,12.90
2023-05-15T08:34:20.818Z,16.60
2023-05-15T08:35:20.706Z,15.90
2023-05-15T08:36:20.776Z,17.50
2023-05-15T08:37:23.540Z,18.30
2023-05-15T08:38:20.587Z,17.80
2023-05-15T08:39:20.571Z,16.90
2023-05-15T08:40:25.680Z,17.20
2023-05-15T08:41:28.825Z,17.30
2023-05-15T08:42:20.517Z,18.70
2023-05-15T08:43:20.523Z,19.40
2023-05-15T08:44:20.527Z,19.40
2023-05-15T08:45:20.486Z,19.70
2023-05-15T08:46:20.501Z,19.70
2023-05-15T08:47:20.518Z,21.00
2023-05-15T08:48:20.644Z,21.00
2023-05-15T08:49:20.749Z,21.50
2023-05-15T08:50:22.212Z,19.90
2023-05-15T08:51:21.026Z,20.60
2023-05-15T08:52:21.077Z,20.60
2023-05-15T08:53:28.389Z,20.30
2023-05-15T08:54:20.408Z,21.20
2023-05-15T08:55:21.631Z,21.10
2023-05-15T08:56:20.649Z,21.60
2023-05-15T08:57:20.768Z,24.20
2023-05-15T08:58:20.374Z,22.90
2023-05-15T08:59:20.410Z,22.60
2023-05-15T09:00:20.377Z,23.20
2023-05-15T09:01:20.320Z,23.60
2023-05-15T09:02:20.442Z,23.00
2023-05-15T09:03:20.383Z,24.40
2023-05-15T09:21:59.883Z,21.50
2023-05-15T09:22:59.857Z,22.20
2023-05-15T09:23:59.834Z,23.70
2023-05-15T09:24:59.820Z,20.90
2023-05-15T09:25:59.813Z,22.30
2023-05-15T09:26:59.786Z,22.40
2023-05-15T09:27:59.769Z,23.30
2023-05-15T09:28:59.777Z,23.30
2023-05-15T09:29:59.832Z,22.10
2023-05-15T09:30:59.746Z,23.70
2023-05-15T09:32:00.001Z,24.20
2023-05-15T09:32:59.780Z,23.60
2023-05-15T09:33:59.708Z,22.60
2023-05-15T09:34:59.700Z,21.30
2023-05-15T09:35:59.720Z,22.30
2023-05-15T09:36:59.678Z,22.30
2023-05-15T09:37:59.727Z,20.90
2023-05-15T09:38:59.759Z,21.50
2023-05-15T09:39:59.704Z,21.10
2023-05-15T09:40:59.638Z,21.00
2023-05-15T09:41:59.630Z,20.80
2023-05-15T09:42:59.726Z,21.90
2023-05-15T09:43:59.683Z,22.10
2023-05-15T09:44:59.598Z,21.70
2023-05-15T09:45:59.654Z,21.10
2023-05-15T09:46:59.668Z,22.70
2023-05-15T09:47:59.842Z,22.40
2023-05-15T09:48:59.576Z,22.10
2023-05-15T09:49:59.539Z,21.70
2023-05-15T09:50:59.568Z,22.90
2023-05-15T09:51:59.530Z,21.70
2023-05-15T09:52:59.523Z,22.70
2023-05-15T09:53:59.532Z,22.50
2023-05-15T09:54:59.487Z,22.50
2023-05-15T09:55:59.508Z,21.10
2023-05-15T09:56:59.508Z,21.80
2023-05-15T09:57:59.444Z,20.80
2023-05-15T09:58:59.476Z,21.60
2023-05-15T09:59:59.438Z,21.90
2023-05-15T10:00:59.441Z,20.90
2023-05-15T10:01:59.543Z,21.60
2023-05-15T10:02:59.450Z,21.40
2023-05-15T10:03:59.441Z,22.80
2023-05-15T10:04:59.462Z,23.30
2023-05-15T10:05:59.601Z,22.70
2023-05-15T10:06:59.382Z,21.90
2023-05-15T10:07:59.336Z,21.70
2023-05-15T10:08:59.369Z,22.00
2023-05-15T10:10:01.337Z,22.20
2023-05-15T10:10:59.321Z,21.90
2023-05-15T10:11:59.294Z,21.60
2023-05-15T10:12:59.283Z,22.20
2023-05-15T10:13:59.283Z,21.70
2023-05-15T10:14:59.264Z,21.80
2023-05-15T10:15:59.290Z,21.30
2023-05-15T10:17:00.169Z,21.90
2023-05-15T10:17:59.576Z,21.90
2023-05-15T10:18:59.373Z,22.70
2023-05-15T10:19:59.302Z,20.90
2023-05-15T10:20:59.211Z,21.10
2023-05-15T10:21:59.224Z,21.30
2023-05-15T10:22:59.209Z,22.70
2023-05-15T10:23:59.192Z,20.70
2023-05-15T10:24:59.158Z,21.50
2023-05-15T10:25:59.161Z,20.60
2023-05-15T10:26:59.170Z,20.60
2023-05-15T10:27:59.161Z,20.30
2023-05-15T10:28:59.124Z,21.10
2023-05-15T10:29:59.273Z,20.60
2023-05-15T10:30:59.692Z,21.50
2023-05-15T10:31:59.947Z,21.10
2023-05-15T10:33:02.733Z,20.20
2023-05-15T10:33:59.136Z,22.40
2023-05-15T10:34:59.049Z,21.80
2023-05-15T10:35:59.070Z,20.60
2023-05-15T10:36:59.028Z,21.90
2023-05-15T10:37:59.242Z,22.00
2023-05-15T10:38:59.272Z,21.20
2023-05-15T10:39:59.267Z,21.40
2023-05-15T10:41:15.397Z,22.30
2023-05-15T10:42:00.167Z,20.90
2023-05-15T10:42:59.161Z,21.30
2023-05-15T10:43:59.252Z,21.40
2023-05-15T10:44:59.189Z,21.20
2023-05-15T10:45:59.053Z,21.50
2023-05-15T10:46:59.318Z,21.20
2023-05-15T10:47:59.655Z,21.20
2023-05-15T10:48:59.360Z,21.40
2023-05-15T10:49:59.233Z,22.10
2023-05-15T10:50:59.185Z,22.70
2023-05-15T10:51:58.893Z,22.10
2023-05-15T10:52:58.859Z,20.80
2023-05-15T10:53:58.907Z,21.10
2023-05-15T10:54:58.848Z,21.50
2023-05-15T10:55:58.834Z,22.10
2023-05-15T10:56:58.827Z,21.70
2023-05-15T10:57:58.863Z,21.70
2023-05-15T10:58:58.783Z,21.70
2023-05-15T11:00:00.602Z,21.80
2023-05-15T11:00:58.818Z,22.60
2023-05-15T11:01:58.831Z,21.20
2023-05-15T11:02:58.852Z,20.40
2023-05-15T11:03:58.757Z,20.90
2023-05-15T11:04:58.764Z,21.50
2023-05-15T11:05:58.715Z,21.20
2023-05-15T11:06:58.713Z,21.10
2023-05-15T11:07:58.697Z,21.90
2023-05-15T11:08:58.678Z,21.50
2023-05-15T11:09:58.734Z,20.50
2023-05-15T11:10:58.664Z,23.00
2023-05-15T11:11:58.632Z,21.70
2023-05-15T11:12:58.646Z,21.80
2023-05-15T11:13:58.659Z,22.00
2023-05-15T11:14:58.608Z,22.00
2023-05-15T11:15:58.609Z,22.30
2023-05-15T11:16:58.655Z,22.70
2023-05-15T11:17:58.585Z,22.40
2023-05-15T11:18:58.619Z,21.30
2023-05-15T11:19:58.705Z,21.40
2023-05-15T11:20:58.551Z,22.00
2023-05-15T11:23:16.530Z,18.60
2023-05-15T11:24:16.532Z,20.80
2023-05-15T11:25:16.515Z,21.30
2023-05-15T11:26:16.517Z,21.20
2023-05-15T11:27:16.484Z,20.80
2023-05-15T11:28:16.472Z,21.40
2023-05-15T11:29:16.488Z,21.90
2023-05-15T11:30:16.467Z,21.50
2023-05-15T11:31:16.485Z,20.60
2023-05-15T11:32:16.431Z,20.30
2023-05-15T11:33:16.564Z,20.60
2023-05-15T11:34:16.406Z,19.90
2023-05-15T11:35:16.440Z,20.70
2023-05-15T11:36:16.410Z,21.40
2023-05-15T11:37:16.369Z,19.50
2023-05-15T11:38:16.381Z,19.90
2023-05-15T11:39:16.354Z,21.50
2023-05-15T11:40:16.352Z,21.00
2023-05-15T11:41:16.345Z,20.10
2023-05-15T11:42:16.326Z,19.30
2023-05-15T11:43:16.306Z,20.90
2023-05-15T11:44:16.304Z,20.60
2023-05-15T11:45:16.505Z,21.80
2023-05-15T11:46:16.442Z,20.10
2023-05-15T11:47:16.276Z,20.60
2023-05-15T11:48:16.380Z,20.90
2023-05-15T11:49:16.248Z,21.00
2023-05-15T11:50:16.275Z,20.10
2023-05-15T11:51:16.219Z,20.30
2023-05-15T11:52:16.227Z,20.00
2023-05-15T11:53:16.256Z,20.10
2023-05-15T11:54:16.198Z,20.20
2023-05-15T11:55:16.175Z,19.60
2023-05-15T11:56:16.174Z,18.60
2023-05-15T11:57:16.199Z,18.50
2023-05-15T11:58:16.577Z,19.50
2023-05-15T11:59:16.188Z,19.80
2023-05-15T12:00:16.182Z,20.00
2023-05-15T12:01:17.464Z,19.10
2023-05-15T12:02:16.161Z,19.50
2023-05-15T12:03:16.238Z,18.60
2023-05-15T12:04:16.341Z,18.50
2023-05-15T12:05:16.141Z,17.50
2023-05-15T12:06:16.086Z,16.80
2023-05-15T12:07:16.095Z,17.30
2023-05-15T12:08:16.051Z,16.70
2023-05-15T12:09:16.968Z,15.30
2023-05-15T12:10:16.018Z,14.90
2023-05-15T12:11:16.108Z,16.10
2023-05-15T12:12:15.995Z,15.50
2023-05-15T12:13:16.928Z,15.20
2023-05-15T12:14:16.028Z,16.60
2023-05-15T12:15:15.963Z,15.50
2023-05-15T12:16:15.980Z,15.80
2023-05-15T12:17:15.974Z,15.10
2023-05-15T12:18:15.931Z,15.10
2023-05-15T12:19:15.981Z,15.60
2023-05-15T12:20:17.929Z,16.30
2023-05-15T12:21:15.918Z,15.20
2023-05-15T12:22:15.886Z,14.30
2023-05-15T12:23:15.894Z,15.80
2023-05-15T12:24:15.884Z,14.00
2023-05-15T12:25:15.896Z,14.80
2023-05-15T12:26:15.970Z,14.30
2023-05-15T12:27:15.857Z,14.60
2023-05-15T12:28:15.840Z,15.50
2023-05-15T12:29:15.819Z,14.80
2023-05-15T12:30:15.857Z,14.70
2023-05-15T12:31:15.834Z,14.80
2023-05-15T12:32:15.898Z,14.50
2023-05-15T12:33:15.868Z,15.90
2023-05-15T12:34:15.757Z,15.10
2023-05-15T12:35:15.755Z,13.40
2023-05-15T12:36:15.759Z,15.70
2023-05-15T12:37:15.730Z,14.90
2023-05-15T12:38:15.722Z,15.40
2023-05-15T12:39:15.734Z,14.70
2023-05-15T12:40:15.701Z,16.80
2023-05-15T12:41:15.706Z,16.50
2023-05-15T12:42:15.670Z,16.50
2023-05-15T12:43:15.669Z,17.60
2023-05-15T12:44:15.682Z,16.80
2023-05-15T12:45:15.701Z,15.70
2023-05-15T12:46:15.676Z,15.40
2023-05-15T12:47:15.635Z,15.00
2023-05-15T12:48:15.640Z,15.30
2023-05-15T12:49:15.624Z,15.60
2023-05-15T12:50:15.602Z,14.20
2023-05-15T12:51:15.579Z,15.20
2023-05-15T12:52:15.568Z,15.80
2023-05-15T12:53:15.603Z,16.50
2023-05-15T12:54:15.540Z,15.60
2023-05-15T12:55:15.551Z,17.10
2023-05-15T12:56:15.521Z,16.30
2023-05-15T12:57:15.580Z,15.80
2023-05-15T12:58:15.530Z,14.60
2023-05-15T12:59:15.506Z,15.70
2023-05-15T13:00:15.520Z,14.50
2023-05-15T13:01:15.507Z,14.60
2023-05-15T13:02:15.502Z,14.60
2023-05-15T13:03:15.604Z,14.80
2023-05-15T13:04:15.473Z,13.50
2023-05-15T13:05:15.474Z,12.30
2023-05-15T13:06:15.448Z,11.40
2023-05-15T13:07:15.406Z,11.40
2023-05-15T13:08:15.403Z,11.50
2023-05-15T13:09:15.440Z,11.80
2023-05-15T13:10:15.398Z,12.20
2023-05-15T13:11:15.362Z,12.40
2023-05-15T13:12:15.343Z,11.80
2023-05-15T13:13:15.344Z,10.50
2023-05-15T13:14:15.335Z,9.00
2023-05-15T13:15:15.318Z,9.10
2023-05-15T13:16:15.311Z,9.50
2023-05-15T13:17:15.339Z,9.10
2023-05-15T13:18:15.300Z,10.70
2023-05-15T13:19:15.290Z,9.60
2023-05-15T13:20:15.275Z,9.90
2023-05-15T13:21:15.306Z,11.10
2023-05-15T13:22:15.238Z,11.40
2023-05-15T13:33:48.831Z,8.60
2023-05-15T13:34:48.812Z,11.10
2023-05-15T13:35:48.949Z,11.00
2023-05-15T13:36:48.819Z,10.40
2023-05-15T13:37:48.782Z,11.60
2023-05-15T13:38:48.770Z,12.20
2023-05-15T13:39:48.757Z,11.50
2023-05-15T13:40:48.763Z,11.70
2023-05-15T13:41:48.770Z,10.50
2023-05-15T13:42:48.761Z,12.20
2023-05-15T13:43:48.723Z,10.00
2023-05-15T13:44:48.713Z,9.50
2023-05-15T13:45:48.730Z,10.00
2023-05-15T13:46:48.717Z,10.40
2023-05-15T13:47:49.043Z,10.90
2023-05-15T13:48:48.677Z,9.90
2023-05-15T13:49:48.654Z,9.60
2023-05-15T13:50:48.731Z,10.10
2023-05-15T13:51:48.655Z,11.10
2023-05-15T13:52:48.699Z,11.30
2023-05-15T13:53:48.617Z,10.10
2023-05-15T13:54:48.638Z,9.80
2023-05-15T13:55:48.646Z,9.00
2023-05-15T13:56:48.584Z,8.80
2023-05-15T13:57:48.586Z,9.40
2023-05-15T13:58:48.580Z,9.80
2023-05-15T13:59:48.547Z,9.20
2023-05-15T14:00:48.564Z,8.60
2023-05-15T14:01:48.545Z,9.50
2023-05-15T14:02:48.595Z,10.50
2023-05-15T14:03:48.544Z,9.80
2023-05-15T14:04:48.529Z,11.50
2023-05-15T14:05:48.644Z,10.80
2023-05-15T14:06:48.494Z,10.30
2023-05-15T14:07:48.469Z,8.70
2023-05-15T14:08:48.495Z,7.80
2023-05-15T14:09:48.463Z,7.90
2023-05-15T14:10:48.442Z,9.10
2023-05-15T14:11:48.425Z,12.10
2023-05-15T14:12:48.404Z,10.10
2023-05-15T14:13:48.422Z,10.00
2023-05-15T14:14:48.410Z,10.80
2023-05-15T14:15:48.373Z,10.80
2023-05-15T14:16:48.463Z,9.80
2023-05-15T14:17:48.436Z,9.30
2023-05-15T14:18:48.388Z,10.30
2023-05-15T14:19:48.347Z,9.60
2023-05-15T14:20:48.344Z,9.30
2023-05-15T14:21:48.311Z,9.00
2023-05-15T14:22:48.320Z,7.90
2023-05-15T14:23:48.289Z,8.70
2023-05-15T14:24:48.453Z,8.50
2023-05-15T14:25:48.286Z,8.50